LEIB Airport Information

Runway Information
Runway 06 Length 9186 ft width 148 ft
Elevation 13 ft Threshold 0 ft Heading 62
Runway 24 Length 9186 ft Width 148 ft
Elevation 16 ft Threshold 0 ft Heading 242
Airport Frequencies
Type APP Name PALMA APP Frequency 118.125 MHZ
Type APP Name APP Frequency 119.8 MHZ
Type ATIS Name ATIS Frequency 117.8 MHZ
Type GND Name GND Frequency 121.8 MHZ
Type TWR Name TWR Frequency 118.5 MHZ
Airport Navaids
Type VOR-DME Name Ibiza Frequency 117800 KHZ
Type NDB Name Ibiza Frequency 394 KHZ
Airport Weather Information & NOTAM
ADDS - METARS form results

(1322 UTC 13 July 2020)
Data provider http://aviationweather.gov/metar/data/
 
METAR text: LEIB 131300Z 08013KT 050V130 CAVOK 29/22 Q1017 NOSIG
Conditions at: LEIB (IBIZA/ES CODOLA , ES) observed 1300 UTC 13 July 2020
Temperature: 29.0°C (84°F)
Dewpoint: 22.0°C (72°F) [RH = 66%]
Pressure (altimeter): 30.03 inches Hg (1017.0 mb)
Winds: from the E (80 degrees) at 15 MPH (13 knots; 6.7 m/s)
Visibility: 6 or more miles (10+ km)
Ceiling: ceiling and visibility are OK
Clouds: unknown
Weather: no significant weather observed at this time

METAR text: LEIB 131230Z 09014KT 060V120 CAVOK 29/22 Q1017 NOSIG
Conditions at: LEIB (IBIZA/ES CODOLA , ES) observed 1230 UTC 13 July 2020
Temperature: 29.0°C (84°F)
Dewpoint: 22.0°C (72°F) [RH = 66%]
Pressure (altimeter): 30.03 inches Hg (1017.0 mb)
Winds: from the E (90 degrees) at 16 MPH (14 knots; 7.2 m/s)
Visibility: 6 or more miles (10+ km)
Ceiling: ceiling and visibility are OK
Clouds: unknown
Weather: no significant weather observed at this time

Forecast for: LEIB (IBIZA/ES CODOLA , ES)
Text: TAF LEIB 130800Z 1309/1409 07010KT CAVOK TX31/1312Z TN22/1406Z
Forecast period: 0900 UTC 13 July 2020 to 0900 UTC 14 July 2020
Forecast type: FROM: standard forecast or significant change
Winds: from the ENE (70 degrees) at 12 MPH (10 knots; 5.1 m/s)
Visibility: 6 or more miles 10+ km)
Ceiling: unknown
Clouds: missing
Weather: no significant weather forecast for this period